Springfield, Illinois
Current Conditions -  °F | °C
As of 12:52 AM on Saturday 25 Oct 2014 (Local Time) from KSPI Reporting Station
Scattered Clouds Scattered Clouds  
Wind Chill: 17°   Ceiling: Unl
Heat Index: 17°   Visibility: 10mi
Dew Point: 11°   Wind: 7mph
Humidity: 67%   Direction: 200°SSW
Pressure: 29.96"   Gusts: NA
Location:  39.8°N, 89.64°W
Report Text: KSPI 250552Z AUTO 20006KT 10SM SCT039 17/11 A2996 RMK AO2 SLP144 T01670106 10178 20156 402170083 58007
Loading
Personal Weather Stations






























Interactive Weather Map New forecast layout! Learn more

10-Day Weather Forecast

Advertisements
Track Severe Weather on mobile